Time;durP1;ratioP1;P1;durP2;ratioP2;P2;SDS_P1;SDS_P2;PMS_P1;PMS_P2;Temp;Humidity;BMP_temperature;BMP_pressure;BME280_temperature;BME280_humidity;BME280_pressure;Samples;Min_cycle;Max_cycle;Signal;HPM_P1;HPM_P2
2022/10/01 00:01:55;;;;;;;;;;;12.50;99.90;;;;;;5074550;28;19908;-77
2022/10/01 00:04:21;;;;;;;;;;;12.40;99.90;;;;;;5073959;28;20349;-76
2022/10/01 00:06:46;;;;;;;;;;;12.40;99.90;;;;;;5074489;28;19964;-76
2022/10/01 00:09:12;;;;;;;;;;;12.40;99.90;;;;;;5074205;28;19914;-75
2022/10/01 00:11:38;;;;;;;;;;;12.40;99.90;;;;;;5073748;28;20362;-76
2022/10/01 00:14:03;;;;;;;;;;;12.30;99.90;;;;;;5074419;28;19909;-76
2022/10/01 00:16:29;;;;;;;;;;;12.30;99.90;;;;;;5073363;28;19908;-75
2022/10/01 00:18:56;;;;;;;;;;;12.30;99.90;;;;;;5074339;28;19995;-76
2022/10/01 00:21:26;;;;;;;;;;;12.30;99.90;;;;;;5073657;28;19908;-76
2022/10/01 00:23:55;;;;;;;;;;;12.30;99.90;;;;;;5073997;28;19909;-77
2022/10/01 00:26:22;;;;;;;;;;;12.30;99.90;;;;;;5072097;28;19921;-76
2022/10/01 00:28:51;;;;;;;;;;;12.40;99.90;;;;;;5074008;28;19991;-77
2022/10/01 00:31:17;;;;;;;;;;;12.40;99.90;;;;;;5073061;28;20549;-76
2022/10/01 00:33:42;;;;;;;;;;;12.40;99.90;;;;;;5073572;28;19952;-76
2022/10/01 00:36:09;;;;;;;;;;;12.40;99.90;;;;;;5074006;28;19932;-76
2022/10/01 00:38:35;;;;;;;;;;;12.40;99.90;;;;;;5073484;28;20357;-76
2022/10/01 00:41:01;;;;;;;;;;;12.40;99.90;;;;;;5073289;28;19919;-76
2022/10/01 00:43:33;;;;;;;;;;;12.40;99.90;;;;;;5072899;28;19991;-75
2022/10/01 00:46:08;;;;;;;;;;;12.30;99.90;;;;;;5073432;28;20321;-76
2022/10/01 00:48:37;;;;;;;;;;;12.30;99.90;;;;;;5072751;28;19909;-76
2022/10/01 00:51:03;;;;;;;;;;;12.30;99.90;;;;;;5073450;28;19920;-76
2022/10/01 00:53:29;;;;;;;;;;;12.30;99.90;;;;;;5072989;28;19909;-76
2022/10/01 00:55:56;;;;;;;;;;;12.30;99.90;;;;;;5073349;28;19916;-76
2022/10/01 00:58:22;;;;;;;;;;;12.30;99.90;;;;;;5072875;28;19959;-76
2022/10/01 01:00:48;;;;;;;;;;;12.20;99.90;;;;;;5073462;28;19920;-76
2022/10/01 01:03:14;;;;;;;;;;;12.20;99.90;;;;;;5073427;28;19916;-77
2022/10/01 01:05:40;;;;;;;;;;;12.20;99.90;;;;;;5072515;28;20268;-75
2022/10/01 01:08:06;;;;;;;;;;;12.20;99.90;;;;;;5073736;28;20342;-76
2022/10/01 01:10:51;;;;;;;;;;;12.20;99.90;;;;;;5072750;28;19908;-75
2022/10/01 01:13:29;;;;;;;;;;;12.10;99.90;;;;;;5072897;28;20369;-75
2022/10/01 01:15:58;;;;;;;;;;;12.10;99.90;;;;;;5073173;28;20257;-76
2022/10/01 01:18:35;;;;;;;;;;;12.10;99.90;;;;;;5072644;28;19908;-76
2022/10/01 01:21:21;;;;;;;;;;;12.10;99.90;;;;;;5073212;28;19913;-76
2022/10/01 01:23:46;;;;;;;;;;;12.10;99.90;;;;;;5072461;28;20004;-75
2022/10/01 01:26:12;;;;;;;;;;;12.10;99.90;;;;;;5072689;28;19966;-76
2022/10/01 01:28:46;;;;;;;;;;;12.00;99.90;;;;;;5072427;28;19924;-76
2022/10/01 01:31:15;;;;;;;;;;;12.10;99.90;;;;;;5073159;28;19916;-76
2022/10/01 01:33:43;;;;;;;;;;;12.10;99.90;;;;;;5072378;28;20062;-76
2022/10/01 01:36:14;;;;;;;;;;;12.10;99.90;;;;;;5072727;28;19908;-76
2022/10/01 01:38:42;;;;;;;;;;;12.00;99.90;;;;;;5072510;28;19912;-75
2022/10/01 01:41:09;;;;;;;;;;;12.00;99.90;;;;;;5072719;28;19992;-76
2022/10/01 01:43:37;;;;;;;;;;;12.00;99.90;;;;;;5072059;28;20258;-75
2022/10/01 01:46:04;;;;;;;;;;;12.00;99.90;;;;;;5072965;28;19917;-75
2022/10/01 01:48:30;;;;;;;;;;;12.00;99.90;;;;;;5072319;28;19908;-75
2022/10/01 01:50:59;;;;;;;;;;;12.10;99.90;;;;;;5072571;28;19986;-75
2022/10/01 01:53:25;;;;;;;;;;;12.10;99.90;;;;;;5072381;28;19966;-74
2022/10/01 01:55:51;;;;;;;;;;;12.00;99.90;;;;;;5072676;28;19912;-76
2022/10/01 01:58:17;;;;;;;;;;;12.00;99.90;;;;;;5072761;28;20265;-76
2022/10/01 02:00:43;;;;;;;;;;;12.00;99.90;;;;;;5071913;28;19954;-76
2022/10/01 02:03:09;;;;;;;;;;;12.00;99.90;;;;;;5072877;28;19909;-75
2022/10/01 02:05:42;;;;;;;;;;;12.00;99.90;;;;;;5072190;28;19916;-76
2022/10/01 02:08:08;;;;;;;;;;;12.00;99.90;;;;;;5072899;28;20371;-75
2022/10/01 02:10:52;;;;;;;;;;;12.00;99.90;;;;;;5070906;28;19920;-75
2022/10/01 02:13:27;;;;;;;;;;;11.90;99.90;;;;;;5072643;28;20254;-76
2022/10/01 02:16:08;;;;;;;;;;;11.90;99.90;;;;;;5072451;28;19970;-75
2022/10/01 02:18:33;;;;;;;;;;;11.90;99.90;;;;;;5071717;28;19908;-76
2022/10/01 02:21:15;;;;;;;;;;;11.90;99.90;;;;;;5072268;28;19915;-77
2022/10/01 02:23:47;;;;;;;;;;;11.90;99.90;;;;;;5071999;28;20035;-76
2022/10/01 02:26:15;;;;;;;;;;;11.90;99.90;;;;;;5071144;28;19982;-76
2022/10/01 02:28:41;;;;;;;;;;;11.90;99.90;;;;;;5071958;28;20628;-75
2022/10/01 02:31:08;;;;;;;;;;;11.90;99.90;;;;;;5072444;28;19908;-75
2022/10/01 02:33:35;;;;;;;;;;;11.90;99.90;;;;;;5072234;28;20354;-77
2022/10/01 02:36:03;;;;;;;;;;;11.90;99.90;;;;;;5072543;28;20050;-76
2022/10/01 02:38:30;;;;;;;;;;;11.90;99.90;;;;;;5072179;28;19916;-75
2022/10/01 02:40:59;;;;;;;;;;;11.90;99.90;;;;;;5072425;28;20000;-75
2022/10/01 02:43:31;;;;;;;;;;;11.90;99.90;;;;;;5071653;28;19951;-75
2022/10/01 02:46:04;;;;;;;;;;;11.90;99.90;;;;;;5072355;28;20268;-76
2022/10/01 02:48:29;;;;;;;;;;;11.90;99.90;;;;;;5072044;28;19969;-76
2022/10/01 02:51:05;;;;;;;;;;;11.90;99.90;;;;;;5076138;28;20342;-77
2022/10/01 02:53:34;;;;;;;;;;;11.80;99.90;;;;;;5075161;28;20373;-75
2022/10/01 02:56:01;;;;;;;;;;;11.80;99.90;;;;;;5075863;28;19908;-77
2022/10/01 02:58:26;;;;;;;;;;;11.80;99.90;;;;;;5075054;28;19908;-75
2022/10/01 03:00:52;;;;;;;;;;;11.80;99.90;;;;;;5075817;28;19961;-76
2022/10/01 03:03:18;;;;;;;;;;;11.80;99.90;;;;;;5074469;28;19908;-75
2022/10/01 03:05:43;;;;;;;;;;;11.90;99.90;;;;;;5074701;28;19994;-75
2022/10/01 03:08:09;;;;;;;;;;;11.90;99.90;;;;;;5075548;28;19916;-75
2022/10/01 03:10:34;;;;;;;;;;;11.90;99.90;;;;;;5074953;28;20421;-75
2022/10/01 03:13:00;;;;;;;;;;;12.00;99.90;;;;;;5075485;28;20246;-74
2022/10/01 03:15:26;;;;;;;;;;;12.00;99.90;;;;;;5075087;28;19919;-76
2022/10/01 03:17:52;;;;;;;;;;;12.00;99.90;;;;;;5075380;28;20269;-76
2022/10/01 03:20:18;;;;;;;;;;;12.00;99.90;;;;;;5075336;28;19934;-76
2022/10/01 03:22:45;;;;;;;;;;;12.00;99.90;;;;;;5074739;28;19909;-76
2022/10/01 03:25:10;;;;;;;;;;;12.00;99.90;;;;;;5075218;28;19913;-76
2022/10/01 03:27:36;;;;;;;;;;;12.00;99.90;;;;;;5074171;28;19975;-76
2022/10/01 03:30:02;;;;;;;;;;;11.90;99.90;;;;;;5075060;28;19908;-77
2022/10/01 03:32:27;;;;;;;;;;;11.90;99.90;;;;;;5074444;28;19935;-75
2022/10/01 03:34:53;;;;;;;;;;;11.90;99.90;;;;;;5074830;28;19908;-76
2022/10/01 03:37:19;;;;;;;;;;;11.90;99.90;;;;;;5074686;28;19915;-76
2022/10/01 03:39:44;;;;;;;;;;;11.90;99.90;;;;;;5074399;28;19908;-76
2022/10/01 03:42:10;;;;;;;;;;;11.90;99.90;;;;;;5075422;28;19909;-75
2022/10/01 03:44:36;;;;;;;;;;;11.90;99.90;;;;;;5074611;28;19915;-76
2022/10/01 03:47:01;;;;;;;;;;;11.90;99.90;;;;;;5074931;28;19916;-75
2022/10/01 03:49:27;;;;;;;;;;;11.90;99.90;;;;;;5074323;28;19913;-76
2022/10/01 03:51:53;;;;;;;;;;;11.90;99.90;;;;;;5074211;28;19920;-76
2022/10/01 03:54:19;;;;;;;;;;;11.90;99.90;;;;;;5074583;28;19915;-76
2022/10/01 03:56:44;;;;;;;;;;;11.90;99.90;;;;;;5073991;28;19916;-76
2022/10/01 03:59:10;;;;;;;;;;;11.80;99.90;;;;;;5074404;28;20298;-76
2022/10/01 04:01:36;;;;;;;;;;;11.80;99.90;;;;;;5072946;28;19915;-76
2022/10/01 04:04:02;;;;;;;;;;;11.90;99.90;;;;;;5074483;28;19912;-76
2022/10/01 04:06:28;;;;;;;;;;;11.90;99.90;;;;;;5074054;28;19924;-76
2022/10/01 04:08:54;;;;;;;;;;;11.90;99.90;;;;;;5073910;28;19909;-75
2022/10/01 04:11:20;;;;;;;;;;;11.90;99.90;;;;;;5074263;28;19932;-76
2022/10/01 04:13:46;;;;;;;;;;;11.80;99.90;;;;;;5073553;28;19932;-76
2022/10/01 04:16:11;;;;;;;;;;;11.80;99.90;;;;;;5074141;28;20366;-76
2022/10/01 04:18:37;;;;;;;;;;;11.80;99.90;;;;;;5073741;28;19918;-75
2022/10/01 04:21:03;;;;;;;;;;;11.80;99.90;;;;;;5074223;28;20320;-76
2022/10/01 04:23:28;;;;;;;;;;;11.80;99.90;;;;;;5074521;28;19908;-76
2022/10/01 04:25:57;;;;;;;;;;;11.70;99.90;;;;;;5073665;28;19917;-76
2022/10/01 04:28:22;;;;;;;;;;;11.70;99.90;;;;;;5074122;28;19908;-76
2022/10/01 04:31:23;;;;;;;;;;;11.70;99.90;;;;;;5073572;28;20234;-76
2022/10/01 04:33:34;;;;;;;;;;;11.70;99.90;;;;;;5072073;28;20316;-75
2022/10/01 04:35:59;;;;;;;;;;;11.60;99.90;;;;;;5074028;28;19962;-75
2022/10/01 04:38:25;;;;;;;;;;;11.60;99.90;;;;;;5074052;28;20330;-75
2022/10/01 04:40:51;;;;;;;;;;;11.60;99.90;;;;;;5073255;28;20003;-76
2022/10/01 04:43:16;;;;;;;;;;;11.50;99.90;;;;;;5074240;28;19944;-76
2022/10/01 04:45:42;;;;;;;;;;;11.50;99.90;;;;;;5072832;28;19959;-76
2022/10/01 04:48:08;;;;;;;;;;;11.50;99.90;;;;;;5072447;28;19915;-76
2022/10/01 04:50:33;;;;;;;;;;;11.40;99.90;;;;;;5072902;28;20361;-76
2022/10/01 04:52:59;;;;;;;;;;;11.50;99.90;;;;;;5073196;28;19920;-76
2022/10/01 04:55:24;;;;;;;;;;;11.40;99.90;;;;;;5073460;28;19915;-76
2022/10/01 04:57:50;;;;;;;;;;;11.40;99.90;;;;;;5073012;28;19908;-76
2022/10/01 05:00:17;;;;;;;;;;;11.40;99.90;;;;;;5073368;28;20257;-76
2022/10/01 05:02:47;;;;;;;;;;;11.50;99.90;;;;;;5071604;28;19909;-77
2022/10/01 05:05:13;;;;;;;;;;;11.40;99.90;;;;;;5073283;28;19908;-76
2022/10/01 05:07:39;;;;;;;;;;;11.40;99.90;;;;;;5072469;28;19921;-76
2022/10/01 05:10:06;;;;;;;;;;;11.40;99.90;;;;;;5073299;28;19916;-76
2022/10/01 05:12:31;;;;;;;;;;;11.50;99.90;;;;;;5072858;28;19908;-76
2022/10/01 05:14:57;;;;;;;;;;;11.40;99.90;;;;;;5072873;28;20273;-76
2022/10/01 05:17:23;;;;;;;;;;;11.40;99.90;;;;;;5072033;28;19908;-76
2022/10/01 05:19:48;;;;;;;;;;;11.40;99.90;;;;;;5072966;28;20333;-76
2022/10/01 05:22:14;;;;;;;;;;;11.40;99.90;;;;;;5073234;28;19915;-76
2022/10/01 05:24:40;;;;;;;;;;;11.40;99.90;;;;;;5071290;28;20294;-76
2022/10/01 05:27:12;;;;;;;;;;;11.40;99.90;;;;;;5072973;28;19916;-76
2022/10/01 05:29:39;;;;;;;;;;;11.40;99.90;;;;;;5072336;28;20016;-76
2022/10/01 05:32:04;;;;;;;;;;;11.40;99.90;;;;;;5073009;28;19909;-75
2022/10/01 05:34:30;;;;;;;;;;;11.40;99.90;;;;;;5073070;28;19915;-76
2022/10/01 05:36:56;;;;;;;;;;;11.40;99.90;;;;;;5072235;28;19908;-76
2022/10/01 05:39:21;;;;;;;;;;;11.40;99.90;;;;;;5071612;28;19908;-76
2022/10/01 05:41:47;;;;;;;;;;;11.40;99.90;;;;;;5072147;28;19919;-76
2022/10/01 05:44:12;;;;;;;;;;;11.40;99.90;;;;;;5073093;28;20037;-76
2022/10/01 05:46:38;;;;;;;;;;;11.50;99.90;;;;;;5072312;28;20377;-76
2022/10/01 05:49:05;;;;;;;;;;;11.50;99.90;;;;;;5072915;28;19931;-76
2022/10/01 05:51:31;;;;;;;;;;;11.50;99.90;;;;;;5072592;28;19924;-75
2022/10/01 05:54:00;;;;;;;;;;;11.50;99.90;;;;;;5072582;28;20068;-76
2022/10/01 05:56:25;;;;;;;;;;;11.60;99.90;;;;;;5072573;28;20348;-76
2022/10/01 05:58:51;;;;;;;;;;;11.60;99.90;;;;;;5071990;28;20004;-76
2022/10/01 06:01:16;;;;;;;;;;;11.60;99.90;;;;;;5072460;28;20335;-76
2022/10/01 06:03:43;;;;;;;;;;;11.60;99.90;;;;;;5072318;28;19909;-75
2022/10/01 06:06:08;;;;;;;;;;;11.60;99.90;;;;;;5072678;28;20015;-76
2022/10/01 06:08:34;;;;;;;;;;;11.60;99.90;;;;;;5072764;28;20381;-76
2022/10/01 06:11:01;;;;;;;;;;;11.60;99.90;;;;;;5072126;28;19959;-77
2022/10/01 06:13:27;;;;;;;;;;;11.60;99.90;;;;;;5072661;28;19909;-76
2022/10/01 06:15:53;;;;;;;;;;;11.60;99.90;;;;;;5072027;28;19908;-76
2022/10/01 06:18:18;;;;;;;;;;;11.60;99.90;;;;;;5072262;28;20057;-76
2022/10/01 06:20:44;;;;;;;;;;;11.70;99.90;;;;;;5070849;28;20360;-76
2022/10/01 06:23:11;;;;;;;;;;;11.60;99.90;;;;;;5072632;28;19983;-75
2022/10/01 06:25:40;;;;;;;;;;;11.70;99.90;;;;;;5076169;28;19915;-77
2022/10/01 06:28:07;;;;;;;;;;;11.70;99.90;;;;;;5076047;28;20384;-75
2022/10/01 06:30:33;;;;;;;;;;;11.70;99.90;;;;;;5076004;28;20006;-76
2022/10/01 06:33:02;;;;;;;;;;;11.70;99.90;;;;;;5075475;28;19949;-76
2022/10/01 06:35:28;;;;;;;;;;;11.80;99.90;;;;;;5076234;28;19962;-76
2022/10/01 06:37:54;;;;;;;;;;;11.70;99.90;;;;;;5075628;28;19909;-75
2022/10/01 06:40:20;;;;;;;;;;;11.70;99.90;;;;;;5076164;28;20365;-76
2022/10/01 06:42:46;;;;;;;;;;;11.70;99.90;;;;;;5075522;28;19908;-75
2022/10/01 06:45:12;;;;;;;;;;;11.70;99.90;;;;;;5075668;28;19954;-75
2022/10/01 06:47:37;;;;;;;;;;;11.70;99.90;;;;;;5075884;28;19924;-75
2022/10/01 06:50:03;;;;;;;;;;;11.70;99.90;;;;;;5075520;28;19951;-76
2022/10/01 06:55:13;;;;;;;;;;;11.70;99.90;;;;;;5075984;28;20333;-76
2022/10/01 06:57:39;;;;;;;;;;;11.70;99.90;;;;;;5075574;28;19962;-75
2022/10/01 07:00:05;;;;;;;;;;;11.70;99.90;;;;;;5075403;28;20300;-75
2022/10/01 07:02:31;;;;;;;;;;;11.70;99.90;;;;;;5075645;28;20006;-75
2022/10/01 07:04:59;;;;;;;;;;;11.70;99.90;;;;;;5074957;28;19916;-75
2022/10/01 07:07:32;;;;;;;;;;;11.80;99.90;;;;;;5075617;28;19970;-75
2022/10/01 07:09:57;;;;;;;;;;;11.80;99.90;;;;;;5075041;28;19958;-75
2022/10/01 07:12:24;;;;;;;;;;;11.90;99.90;;;;;;5075374;28;20235;-76
2022/10/01 07:14:49;;;;;;;;;;;12.00;99.90;;;;;;5074936;28;19954;-75
2022/10/01 07:17:15;;;;;;;;;;;12.10;99.90;;;;;;5075151;28;19908;-75
2022/10/01 07:19:41;;;;;;;;;;;12.10;99.90;;;;;;5075005;28;19908;-75
2022/10/01 07:22:06;;;;;;;;;;;12.20;99.90;;;;;;5075100;28;20315;-75
2022/10/01 07:24:32;;;;;;;;;;;12.30;99.90;;;;;;5074107;28;19912;-75
2022/10/01 07:26:57;;;;;;;;;;;12.40;99.90;;;;;;5074579;28;20284;-75
2022/10/01 07:29:23;;;;;;;;;;;12.40;99.90;;;;;;5075176;28;19915;-77
2022/10/01 07:32:01;;;;;;;;;;;12.50;99.90;;;;;;5074312;28;19912;-76
2022/10/01 07:34:27;;;;;;;;;;;12.60;99.90;;;;;;5075088;28;19948;-76
2022/10/01 07:36:54;;;;;;;;;;;12.70;99.90;;;;;;5074603;28;19912;-76
2022/10/01 07:39:20;;;;;;;;;;;12.70;99.90;;;;;;5074609;28;20362;-75
2022/10/01 07:41:45;;;;;;;;;;;12.70;99.90;;;;;;5074454;28;19954;-74
2022/10/01 07:44:11;;;;;;;;;;;12.80;99.90;;;;;;5074970;28;20308;-76
2022/10/01 07:46:37;;;;;;;;;;;12.90;99.90;;;;;;5074847;28;20020;-76
2022/10/01 07:49:03;;;;;;;;;;;12.90;99.90;;;;;;5074307;28;20490;-75
2022/10/01 07:51:29;;;;;;;;;;;13.00;99.90;;;;;;5074715;28;19920;-75
2022/10/01 07:53:54;;;;;;;;;;;13.00;99.90;;;;;;5074294;28;19908;-75
2022/10/01 07:56:20;;;;;;;;;;;13.10;99.90;;;;;;5073242;28;19946;-75
2022/10/01 07:58:46;;;;;;;;;;;13.20;99.90;;;;;;5073825;28;20381;-75
2022/10/01 08:01:11;;;;;;;;;;;13.30;99.90;;;;;;5074569;28;19916;-75
2022/10/01 08:03:37;;;;;;;;;;;13.30;99.90;;;;;;5073055;28;20361;-75
2022/10/01 08:06:04;;;;;;;;;;;13.40;99.90;;;;;;5073650;28;20019;-76
2022/10/01 08:08:30;;;;;;;;;;;13.40;99.90;;;;;;5074196;28;19915;-76
2022/10/01 08:10:56;;;;;;;;;;;13.50;99.90;;;;;;5073639;28;19908;-76
2022/10/01 08:13:23;;;;;;;;;;;13.40;99.90;;;;;;5073970;28;19908;-75
2022/10/01 08:15:52;;;;;;;;;;;13.40;99.90;;;;;;5073533;28;19912;-77
2022/10/01 08:18:18;;;;;;;;;;;13.50;99.90;;;;;;5074125;28;19912;-76
2022/10/01 08:20:44;;;;;;;;;;;13.60;99.90;;;;;;5073850;28;19999;-76
2022/10/01 08:23:11;;;;;;;;;;;13.60;99.90;;;;;;5073343;28;19996;-75
2022/10/01 08:25:38;;;;;;;;;;;13.70;99.90;;;;;;5073913;28;20353;-75
2022/10/01 08:28:05;;;;;;;;;;;13.80;99.90;;;;;;5073342;28;19909;-75
2022/10/01 08:30:30;;;;;;;;;;;13.90;99.90;;;;;;5073777;28;19915;-76
2022/10/01 08:32:57;;;;;;;;;;;14.00;99.90;;;;;;5073045;28;20315;-75
2022/10/01 08:35:23;;;;;;;;;;;14.00;99.90;;;;;;5074163;28;19987;-76
2022/10/01 08:37:49;;;;;;;;;;;14.10;99.90;;;;;;5073175;28;19953;-75
2022/10/01 08:40:15;;;;;;;;;;;14.20;99.90;;;;;;5073679;28;20308;-75
2022/10/01 08:42:52;;;;;;;;;;;14.20;99.90;;;;;;5073713;28;19915;-76
2022/10/01 08:45:24;;;;;;;;;;;14.20;99.90;;;;;;5074062;28;19951;-75
2022/10/01 08:47:59;;;;;;;;;;;14.20;99.90;;;;;;5072217;28;19978;-74
2022/10/01 08:50:31;;;;;;;;;;;14.10;99.90;;;;;;5073459;28;19909;-76
2022/10/01 08:53:00;;;;;;;;;;;14.20;99.90;;;;;;5073124;28;19927;-76
2022/10/01 08:55:27;;;;;;;;;;;14.20;99.90;;;;;;5073521;28;19915;-76
2022/10/01 08:57:55;;;;;;;;;;;14.10;99.90;;;;;;5072978;28;19908;-75
2022/10/01 09:00:21;;;;;;;;;;;14.10;99.90;;;;;;5073487;28;20013;-75
2022/10/01 09:02:48;;;;;;;;;;;14.10;99.90;;;;;;5073313;28;20426;-76
2022/10/01 09:05:32;;;;;;;;;;;14.20;99.90;;;;;;5071715;28;19932;-76
2022/10/01 09:08:00;;;;;;;;;;;14.20;99.90;;;;;;5072973;28;19927;-76
2022/10/01 09:10:45;;;;;;;;;;;14.20;99.90;;;;;;5073127;28;19930;-75
2022/10/01 09:13:29;;;;;;;;;;;14.20;99.90;;;;;;5072290;28;19908;-76
2022/10/01 09:15:55;;;;;;;;;;;14.20;99.90;;;;;;5072274;28;19909;-76
2022/10/01 09:18:31;;;;;;;;;;;14.20;99.90;;;;;;5072746;28;19984;-76
2022/10/01 09:20:57;;;;;;;;;;;14.30;99.90;;;;;;5072610;28;19909;-76
2022/10/01 09:23:41;;;;;;;;;;;14.40;99.90;;;;;;5073001;28;20368;-77
2022/10/01 09:26:10;;;;;;;;;;;14.50;99.90;;;;;;5070961;28;19916;-77
2022/10/01 09:28:37;;;;;;;;;;;14.70;99.90;;;;;;5072917;28;19908;-78
2022/10/01 09:31:17;;;;;;;;;;;14.70;99.90;;;;;;5072325;28;19908;-76
2022/10/01 09:34:06;;;;;;;;;;;14.70;99.90;;;;;;5072845;28;19908;-76
2022/10/01 09:36:33;;;;;;;;;;;14.70;99.90;;;;;;5073088;28;19909;-76
2022/10/01 09:39:16;;;;;;;;;;;14.80;99.90;;;;;;5072366;28;19909;-77
2022/10/01 09:41:44;;;;;;;;;;;14.90;99.90;;;;;;5072492;28;19916;-76
2022/10/01 09:44:26;;;;;;;;;;;14.90;99.90;;;;;;5072150;28;20128;-76
2022/10/01 09:46:52;;;;;;;;;;;14.90;99.90;;;;;;5072363;28;19916;-76
2022/10/01 09:49:21;;;;;;;;;;;15.00;99.90;;;;;;5072618;28;19917;-76
2022/10/01 09:51:52;;;;;;;;;;;15.10;99.90;;;;;;5072133;28;19928;-77
2022/10/01 09:54:17;;;;;;;;;;;15.10;99.90;;;;;;5071151;28;20353;-77
2022/10/01 09:56:47;;;;;;;;;;;15.20;99.90;;;;;;5072482;28;19915;-77
2022/10/01 09:59:24;;;;;;;;;;;15.20;99.90;;;;;;5075475;28;19944;-77
2022/10/01 10:01:57;;;;;;;;;;;15.30;99.90;;;;;;5076732;28;19918;-76
2022/10/01 10:04:23;;;;;;;;;;;15.30;99.90;;;;;;5076215;28;20290;-76
2022/10/01 10:07:06;;;;;;;;;;;15.30;99.90;;;;;;5076538;28;19925;-77
2022/10/01 10:09:34;;;;;;;;;;;15.40;99.90;;;;;;5076499;28;19913;-77
2022/10/01 10:12:00;;;;;;;;;;;15.40;99.90;;;;;;5075939;28;19951;-77
2022/10/01 10:14:30;;;;;;;;;;;15.40;99.90;;;;;;5076884;28;19915;-77
2022/10/01 10:16:56;;;;;;;;;;;15.40;99.90;;;;;;5075906;28;20361;-75
2022/10/01 10:19:28;;;;;;;;;;;15.50;99.90;;;;;;5076323;28;19928;-77
2022/10/01 10:22:07;;;;;;;;;;;15.60;99.90;;;;;;5075733;28;20361;-74
2022/10/01 10:24:33;;;;;;;;;;;15.60;99.90;;;;;;5074890;28;19931;-75
2022/10/01 10:27:00;;;;;;;;;;;15.60;99.90;;;;;;5075467;28;19917;-77
2022/10/01 10:29:32;;;;;;;;;;;15.60;99.90;;;;;;5075863;28;19909;-77
2022/10/01 10:32:01;;;;;;;;;;;15.80;99.90;;;;;;5075506;28;20277;-75
2022/10/01 10:34:37;;;;;;;;;;;15.80;99.90;;;;;;5075704;28;20329;-77
2022/10/01 10:37:05;;;;;;;;;;;15.80;99.90;;;;;;5075524;28;19916;-74
2022/10/01 10:39:35;;;;;;;;;;;15.80;99.90;;;;;;5075870;28;19919;-77
2022/10/01 10:42:02;;;;;;;;;;;15.80;99.90;;;;;;5075298;28;19953;-75
2022/10/01 10:44:33;;;;;;;;;;;15.80;99.90;;;;;;5075470;28;19912;-76
2022/10/01 10:47:00;;;;;;;;;;;15.70;99.90;;;;;;5075183;28;19924;-76
2022/10/01 10:49:28;;;;;;;;;;;15.70;99.90;;;;;;5075677;28;19952;-75
2022/10/01 10:51:55;;;;;;;;;;;15.80;99.90;;;;;;5074250;28;19920;-76
2022/10/01 10:54:30;;;;;;;;;;;15.80;99.90;;;;;;5075647;28;19909;-76
2022/10/01 10:57:01;;;;;;;;;;;15.90;99.90;;;;;;5075216;28;20350;-76
2022/10/01 10:59:31;;;;;;;;;;;16.00;99.90;;;;;;5075828;28;20277;-77
2022/10/01 11:01:57;;;;;;;;;;;15.90;99.90;;;;;;5075139;28;19908;-76
2022/10/01 11:04:26;;;;;;;;;;;15.90;99.90;;;;;;5075345;28;19915;-77
2022/10/01 11:06:56;;;;;;;;;;;16.00;99.90;;;;;;5070361;28;20380;-77
2022/10/01 11:09:24;;;;;;;;;;;15.80;99.90;;;;;;5064779;28;19963;-77
2022/10/01 11:12:00;;;;;;;;;;;15.70;99.90;;;;;;5055359;28;19909;-77
2022/10/01 11:14:46;;;;;;;;;;;15.50;99.90;;;;;;5055393;28;19916;-77
2022/10/01 11:17:40;;;;;;;;;;;15.40;99.90;;;;;;5054455;28;19909;-76
2022/10/01 11:20:05;;;;;;;;;;;15.30;99.90;;;;;;5053422;28;19908;-76
2022/10/01 11:22:37;;;;;;;;;;;15.10;99.90;;;;;;5055179;28;19963;-76
2022/10/01 11:25:21;;;;;;;;;;;15.10;99.90;;;;;;5054330;28;20355;-76
2022/10/01 11:27:51;;;;;;;;;;;15.20;99.90;;;;;;5055096;28;19971;-76
2022/10/01 11:30:24;;;;;;;;;;;15.30;99.90;;;;;;5054566;28;19912;-76
2022/10/01 11:32:50;;;;;;;;;;;15.40;99.90;;;;;;5057914;28;19916;-77
2022/10/01 11:35:21;;;;;;;;;;;15.50;99.90;;;;;;5074167;28;19908;-78
2022/10/01 11:37:58;;;;;;;;;;;15.60;99.90;;;;;;5075013;28;19915;-76
2022/10/01 11:40:30;;;;;;;;;;;15.60;99.90;;;;;;5074303;28;19909;-76
2022/10/01 11:42:58;;;;;;;;;;;15.80;99.90;;;;;;5074636;28;20345;-76
2022/10/01 11:45:28;;;;;;;;;;;15.90;99.90;;;;;;5074346;28;19908;-76
2022/10/01 11:47:56;;;;;;;;;;;16.10;99.90;;;;;;5074455;28;19960;-75
2022/10/01 11:50:27;;;;;;;;;;;16.10;99.90;;;;;;5074164;28;19909;-76
2022/10/01 11:52:52;;;;;;;;;;;16.10;99.90;;;;;;5074709;28;20011;-76
2022/10/01 12:00:58;;;;;;;;;;;16.50;99.90;;;;;;5074174;28;19974;-75
2022/10/01 12:03:27;;;;;;;;;;;16.60;99.90;;;;;;5073476;28;20382;-75
2022/10/01 12:05:55;;;;;;;;;;;16.60;99.90;;;;;;5074111;28;19954;-77
2022/10/01 12:08:23;;;;;;;;;;;16.70;99.90;;;;;;5073782;28;20556;-76
2022/10/01 12:10:49;;;;;;;;;;;16.90;99.90;;;;;;5073406;28;19915;-76
2022/10/01 12:13:14;;;;;;;;;;;17.00;99.90;;;;;;5073790;28;19908;-75
2022/10/01 12:15:46;;;;;;;;;;;17.10;99.90;;;;;;5073888;28;19920;-76
2022/10/01 12:18:14;;;;;;;;;;;17.10;99.90;;;;;;5073495;28;19912;-76
2022/10/01 12:20:51;;;;;;;;;;;17.00;99.90;;;;;;5072907;28;19909;-75
2022/10/01 12:23:19;;;;;;;;;;;16.90;99.90;;;;;;5072151;28;19958;-76
2022/10/01 12:25:51;;;;;;;;;;;16.80;99.90;;;;;;5073114;28;20380;-76
2022/10/01 12:28:35;;;;;;;;;;;16.70;99.90;;;;;;5072321;28;19912;-76
2022/10/01 12:31:07;;;;;;;;;;;16.60;99.90;;;;;;5072926;28;20353;-75
2022/10/01 12:33:56;;;;;;;;;;;16.60;99.90;;;;;;5073396;28;19913;-76
2022/10/01 12:36:31;;;;;;;;;;;16.40;99.90;;;;;;5066794;28;19955;-76
2022/10/01 12:39:05;;;;;;;;;;;16.40;99.90;;;;;;5073017;28;20334;-76
2022/10/01 12:41:46;;;;;;;;;;;16.30;99.90;;;;;;5072415;28;19913;-76
2022/10/01 12:44:19;;;;;;;;;;;16.30;99.90;;;;;;5109386;27;19912;-75
2022/10/01 12:46:56;;;;;;;;;;;16.30;99.90;;;;;;5110031;28;19934;-76
2022/10/01 12:49:25;;;;;;;;;;;16.30;99.90;;;;;;5109592;28;19904;-76
2022/10/01 12:51:55;;;;;;;;;;;16.30;99.90;;;;;;5109572;28;19919;-76
2022/10/01 12:54:35;;;;;;;;;;;16.20;99.90;;;;;;5109365;28;19924;-75
2022/10/01 12:57:19;;;;;;;;;;;16.20;99.90;;;;;;5109817;28;19915;-76
2022/10/01 13:00:00;;;;;;;;;;;16.20;99.90;;;;;;5109939;28;19908;-75
2022/10/01 13:02:44;;;;;;;;;;;16.30;99.90;;;;;;5108854;28;20286;-75
2022/10/01 13:05:24;;;;;;;;;;;16.50;99.90;;;;;;5109315;28;19953;-75
2022/10/01 13:07:55;;;;;;;;;;;16.70;99.90;;;;;;5109653;28;20387;-76
2022/10/01 13:10:31;;;;;;;;;;;16.80;99.90;;;;;;5108897;28;19908;-76
2022/10/01 13:13:03;;;;;;;;;;;16.90;99.90;;;;;;5109522;28;19915;-75
2022/10/01 13:15:31;;;;;;;;;;;16.80;99.90;;;;;;5109406;28;19908;-75
2022/10/01 13:18:02;;;;;;;;;;;16.90;99.90;;;;;;5109293;28;20630;-76
2022/10/01 13:20:41;;;;;;;;;;;17.00;99.90;;;;;;5108802;28;20269;-75
2022/10/01 13:23:09;;;;;;;;;;;17.00;99.90;;;;;;5142002;27;19916;-75
2022/10/01 13:25:41;;;;;;;;;;;17.00;99.90;;;;;;5109220;28;19915;-76
2022/10/01 13:28:14;;;;;;;;;;;16.90;99.90;;;;;;5108989;28;19954;-77
2022/10/01 13:30:49;;;;;;;;;;;16.90;99.90;;;;;;5109822;28;20342;-77
2022/10/01 13:33:25;;;;;;;;;;;16.90;99.90;;;;;;5108529;28;20272;-75
2022/10/01 13:35:52;;;;;;;;;;;16.90;99.90;;;;;;5109169;28;19912;-76
2022/10/01 13:38:28;;;;;;;;;;;17.00;99.90;;;;;;5108498;28;19908;-75
2022/10/01 13:40:58;;;;;;;;;;;17.10;99.90;;;;;;5108789;28;19915;-76
2022/10/01 13:43:24;;;;;;;;;;;17.10;99.90;;;;;;5107881;28;19916;-76
2022/10/01 13:45:51;;;;;;;;;;;17.00;99.90;;;;;;5108774;28;20266;-76
2022/10/01 13:48:19;;;;;;;;;;;16.90;99.90;;;;;;5108356;28;20425;-75
2022/10/01 13:51:02;;;;;;;;;;;16.90;99.90;;;;;;5108955;28;19912;-76
2022/10/01 13:53:29;;;;;;;;;;;16.90;99.90;;;;;;5106388;28;19908;-75
2022/10/01 13:55:55;;;;;;;;;;;16.90;99.90;;;;;;5094652;28;19962;-76
2022/10/01 13:58:32;;;;;;;;;;;16.80;99.90;;;;;;5093788;28;19919;-77
2022/10/01 14:00:59;;;;;;;;;;;16.80;99.90;;;;;;5095281;28;19908;-77
2022/10/01 14:03:31;;;;;;;;;;;16.80;99.90;;;;;;5094358;28;20501;-77
2022/10/01 14:05:56;;;;;;;;;;;16.80;99.90;;;;;;5095070;28;19912;-75
2022/10/01 14:08:27;;;;;;;;;;;16.80;99.90;;;;;;5094926;28;19908;-76
2022/10/01 14:16:39;;;;;;;;;;;16.70;99.90;;;;;;5095421;28;19961;-75
2022/10/01 14:19:04;;;;;;;;;;;16.70;99.90;;;;;;5095597;28;19908;-77
2022/10/01 14:21:38;;;;;;;;;;;16.70;99.90;;;;;;5095281;28;19991;-77
2022/10/01 14:24:26;;;;;;;;;;;16.70;99.90;;;;;;5095043;28;19935;-75
2022/10/01 14:27:04;;;;;;;;;;;16.70;99.90;;;;;;5095404;28;19912;-75
2022/10/01 14:29:44;;;;;;;;;;;16.70;99.90;;;;;;5094821;28;19908;-76
2022/10/01 14:32:19;;;;;;;;;;;16.70;99.90;;;;;;5094592;28;20277;-75
2022/10/01 14:34:45;;;;;;;;;;;16.70;99.90;;;;;;5095148;28;19973;-75
2022/10/01 14:37:13;;;;;;;;;;;16.70;99.90;;;;;;5094350;28;19951;-76
2022/10/01 14:39:39;;;;;;;;;;;16.80;99.90;;;;;;5095310;28;20258;-76
2022/10/01 14:42:09;;;;;;;;;;;16.90;99.90;;;;;;5094411;28;19916;-76